Overview Statistics Trail Chart Weather Telemetry Raw packets
 

This is the latest recevied telemetry packets stored in our database for station/object DB7JB-1. If no packets are shown the sender has not sent any telemetry packets the latest 10 day(s).

Telemetry packets is used to share measurements like repeteater parameters, battery voltage, radiation readings (or any other measurements).

<< 1 2 3 4 >>
Time Press* Temp.in* Hum* QNH* Temp.out*
1788599821 952.6 hPa 22.5 C deg 34.2 % 1028.3 hPa 0 C deg
1788597991 952.3 hPa 22.4 C deg 34.8 % 1028.1 hPa 0 C deg
1788596161 952 hPa 22.4 C deg 33.9 % 1027.8 hPa 0 C deg
1788594331 951.8 hPa 22.4 C deg 33.8 % 1027.6 hPa 0 C deg
1788592501 951.5 hPa 22.4 C deg 33.7 % 1027.2 hPa 0 C deg
1788590671 951.6 hPa 22.5 C deg 33.6 % 1027.3 hPa 0 C deg
1788588841 950.8 hPa 22.4 C deg 33.8 % 1026.4 hPa 0 C deg
1788587011 950.9 hPa 22.4 C deg 33.8 % 1026.6 hPa 0 C deg
1788585181 951 hPa 22.4 C deg 34 % 1026.7 hPa 0 C deg
1788583350 950.7 hPa 22.4 C deg 34 % 1026.4 hPa 0 C deg
1788581520 950.3 hPa 22.4 C deg 34 % 1025.9 hPa 0 C deg
1788579690 949.5 hPa 22.4 C deg 34 % 1025 hPa 0 C deg
1788577860 948.7 hPa 22.4 C deg 33.9 % 1024.2 hPa 0 C deg
1788576030 947.9 hPa 22.4 C deg 34 % 1023.4 hPa 0 C deg
1788574200 947.8 hPa 22.4 C deg 34 % 1023.2 hPa 0 C deg
1788572370 947.5 hPa 22.4 C deg 34 % 1022.9 hPa 0 C deg
1788570540 947.6 hPa 22.4 C deg 34 % 1023 hPa 0 C deg
1788568710 947.5 hPa 22.4 C deg 34.1 % 1022.8 hPa 0 C deg
1788566880 947.1 hPa 22.5 C deg 34.1 % 1022.5 hPa 0 C deg
1788565049 947 hPa 22.5 C deg 33.9 % 1022.3 hPa 0 C deg
1788563219 947 hPa 22.5 C deg 33.9 % 1022.3 hPa 0 C deg
1788561389 946.9 hPa 22.5 C deg 33.9 % 1022.2 hPa 0 C deg
1788559559 946.8 hPa 22.5 C deg 33.8 % 1022.1 hPa 0 C deg
1788557729 946.5 hPa 22.5 C deg 33.9 % 1021.8 hPa 0 C deg
1788555899 946.5 hPa 22.5 C deg 33.7 % 1021.7 hPa 0 C deg
*Used Equation Coefficients:
Press: 0, 1, 0
Temp.in: 0, 1, 0
Hum: 0, 1, 0
QNH: 0, 1, 0
Temp.out: 0, 1, 0

  • The parameter names for the analog channels will be Value1, Value2, Value3 (up to Value5) if station has not sent a PARAM-packet that specifies the parameter names for each analog channel.
  • Each analog value is a decimal number between 000 and 255 (according to APRS specifications). The receiver use the telemetry equation coefficientsto to restore the original sensor values. If no EQNS-packet with equation coefficients is sent we will show the values as is (this corresponds to the equation coefficients a=0, b=1 and c=0).
    The sent equation coefficients is used in the equation: a * value2 + b * value + c.
  • The units for the analog values will not be shown if station has not sent a UNIT-packet specifying what unit's to use.
  • The parameter names for the digital bits will be Bit1, Bit2, Bit3 (up to Bit8) if station has not sent a PARAM-packet that specifies the parameter names for each digital bit.
  • All bit labels will be named "On" if station has not sent a UNIT-packet that specifies the label of each bit.
  • A bit is considered to be On when the bit is 1 if station has not sent a BITS-packet that specifies another "Bit sense" (a BITS-packet specify the state of the bits that match the BIT labels)